Time;durP1;ratioP1;P1;durP2;ratioP2;P2;SDS_P1;SDS_P2;PMS_P1;PMS_P2;Temp;Humidity;BMP_temperature;BMP_pressure;BME280_temperature;BME280_humidity;BME280_pressure;Samples;Min_cycle;Max_cycle;Signal;HPM_P1;HPM_P2
2023/08/07 00:01:15;;;;;;;26.27;14.98;;;;;;;19.90;82.68;99984.50;5015600;28;20054;-76
2023/08/07 00:03:42;;;;;;;29.80;16.05;;;;;;;19.92;82.81;100014.41;5014862;28;20412;-77
2023/08/07 00:06:11;;;;;;;29.20;15.18;;;;;;;19.95;82.69;100003.59;5021283;28;20057;-78
2023/08/07 00:08:38;;;;;;;20.33;14.40;;;;;;;19.98;82.58;99999.88;5012804;28;20053;-74
2023/08/07 00:11:08;;;;;;;18.60;14.50;;;;;;;20.00;82.57;99992.63;5013839;28;20038;-75
2023/08/07 00:13:35;;;;;;;25.67;15.93;;;;;;;20.03;82.43;99999.53;5017253;28;20053;-74
2023/08/07 00:16:02;;;;;;;20.42;13.85;;;;;;;20.05;82.55;100005.59;5014851;28;20049;-74
2023/08/07 00:18:30;;;;;;;22.67;15.38;;;;;;;20.06;82.55;99999.31;5008503;28;20131;-74
2023/08/07 00:20:57;;;;;;;24.88;14.20;;;;;;;20.05;82.31;99944.59;5012019;28;20415;-73
2023/08/07 00:23:25;;;;;;;34.08;13.25;;;;;;;20.07;82.08;99857.88;5016333;28;20415;-73
2023/08/07 00:25:52;;;;;;;27.88;14.07;;;;;;;20.09;82.12;99834.72;5007804;28;20049;-73
2023/08/07 00:28:19;;;;;;;25.52;13.50;;;;;;;20.09;82.02;99810.84;5015076;28;20042;-74
2023/08/07 00:30:46;;;;;;;22.42;12.02;;;;;;;20.10;81.98;99796.66;5014195;28;20761;-74
2023/08/07 00:33:13;;;;;;;20.98;12.52;;;;;;;20.04;81.96;99781.22;5013889;28;20050;-74
2023/08/07 00:35:40;;;;;;;19.27;11.73;;;;;;;20.11;81.98;99774.47;5011572;28;20042;-74
2023/08/07 00:38:06;;;;;;;19.20;11.80;;;;;;;20.12;81.75;99765.56;5015450;28;20052;-74
2023/08/07 00:40:41;;;;;;;19.83;11.70;;;;;;;20.13;81.71;99772.56;5014254;28;20060;-74
2023/08/07 00:43:08;;;;;;;15.00;12.38;;;;;;;20.13;81.70;99772.56;5013289;28;20785;-74
2023/08/07 00:45:37;;;;;;;16.42;10.82;;;;;;;20.12;81.71;99766.44;5013235;28;20068;-74
2023/08/07 00:48:05;;;;;;;13.40;10.15;;;;;;;20.12;81.78;99766.44;5014484;28;20470;-74
2023/08/07 00:50:33;;;;;;;17.02;10.68;;;;;;;20.12;81.75;99771.72;5014826;28;20120;-74
2023/08/07 00:53:01;;;;;;;12.80;9.75;;;;;;;20.11;81.63;99769.19;5014152;28;20052;-73
2023/08/07 00:55:28;;;;;;;14.02;9.77;;;;;;;20.11;81.59;99803.63;5016362;28;20077;-73
2023/08/07 00:57:57;;;;;;;13.20;10.32;;;;;;;20.13;81.71;99846.81;5010755;28;20048;-73
2023/08/07 01:00:25;;;;;;;17.20;11.93;;;;;;;20.07;81.75;99844.59;5016236;28;20038;-74
2023/08/07 01:02:53;;;;;;;19.27;10.85;;;;;;;20.14;81.86;99835.22;4982153;28;21311;-73
2023/08/07 01:05:20;;;;;;;20.38;10.98;;;;;;;20.13;81.93;99773.41;5015312;28;20536;-73
2023/08/07 01:07:51;;;;;;;16.88;10.32;;;;;;;20.13;81.76;99785.81;5013709;28;20053;-76
2023/08/07 01:10:18;;;;;;;29.83;12.40;;;;;;;20.14;81.61;99795.47;5017527;28;20124;-75
2023/08/07 01:12:54;;;;;;;38.22;15.00;;;;;;;20.12;81.65;99778.81;5011711;28;20052;-74
2023/08/07 01:15:26;;;;;;;31.85;14.50;;;;;;;20.09;81.77;99779.88;5016312;28;20046;-75
2023/08/07 01:17:55;;;;;;;32.78;12.80;;;;;;;20.09;81.69;99789.66;5016507;28;20049;-78
2023/08/07 01:20:21;;;;;;;31.88;13.65;;;;;;;20.09;81.67;99798.44;5018542;28;20083;-78
2023/08/07 01:22:49;;;;;;;20.20;12.98;;;;;;;20.10;81.59;99804.63;5020132;28;20105;-78
2023/08/07 01:25:16;;;;;;;24.27;13.07;;;;;;;20.10;81.60;99804.63;5011863;28;20048;-78
2023/08/07 01:27:51;;;;;;;20.70;11.30;;;;;;;20.06;81.67;99797.81;5013915;28;20049;-77
2023/08/07 01:30:26;;;;;;;19.70;11.23;;;;;;;20.11;81.49;99769.19;5017018;28;20623;-78
2023/08/07 01:32:58;;;;;;;;;;;;;;;20.12;81.30;99765.56;5021873;28;20057;-77
2023/08/07 01:35:30;;;;;;;15.95;11.25;;;;;;;20.11;81.29;99747.97;5009895;28;19927;-77
2023/08/07 01:38:00;;;;;;;19.88;11.60;;;;;;;20.10;81.31;99743.63;5017514;28;20516;-77
2023/08/07 01:40:29;;;;;;;17.52;12.43;;;;;;;20.10;81.41;99735.69;5011715;28;20046;-77
2023/08/07 01:42:56;;;;;;;19.00;10.57;;;;;;;20.09;81.28;99721.56;5018499;28;20128;-78
2023/08/07 01:45:25;;;;;;;16.55;11.13;;;;;;;20.10;81.44;99730.38;5014384;28;20527;-78
2023/08/07 01:47:52;;;;;;;13.50;10.95;;;;;;;20.08;81.41;99725.19;5014427;28;20046;-77
2023/08/07 01:50:19;;;;;;;15.65;10.90;;;;;;;20.08;81.24;99727.81;5015725;28;20124;-77
2023/08/07 01:52:46;;;;;;;16.50;10.68;;;;;;;20.07;81.30;99731.44;5018344;28;20136;-78
2023/08/07 01:55:15;;;;;;;13.43;10.10;;;;;;;19.98;81.27;99701.19;5017913;28;20108;-77
2023/08/07 01:57:41;;;;;;;14.50;9.68;;;;;;;20.07;81.30;99715.53;5013673;28;20048;-78
2023/08/07 02:00:10;;;;;;;13.95;9.98;;;;;;;19.98;81.35;99698.53;5015361;28;20425;-77
2023/08/07 02:02:37;;;;;;;12.35;10.35;;;;;;;20.07;81.19;99723.50;5023235;28;20419;-76
2023/08/07 02:05:04;;;;;;;13.63;9.40;;;;;;;20.06;81.26;99715.66;5013461;28;20041;-78
2023/08/07 02:07:31;;;;;;;10.73;8.40;;;;;;;20.05;81.11;99721.91;5017751;28;20050;-78
2023/08/07 02:09:59;;;;;;;10.65;9.52;;;;;;;20.02;81.06;99712.38;5015629;28;20412;-78
2023/08/07 02:12:29;;;;;;;10.80;9.18;;;;;;;20.04;81.12;99704.34;5016485;28;20052;-78
2023/08/07 02:14:56;;;;;;;12.57;8.52;;;;;;;19.99;81.02;99691.41;5010538;28;20041;-77
2023/08/07 02:17:23;;;;;;;13.60;8.52;;;;;;;20.04;81.33;99688.44;5012944;28;20057;-74
2023/08/07 02:19:50;;;;;;;10.68;7.38;;;;;;;20.02;81.12;99693.84;5014482;28;20056;-74
2023/08/07 02:22:17;;;;;;;13.95;8.25;;;;;;;20.02;81.06;99693.00;5014364;28;20049;-73
2023/08/07 02:24:44;;;;;;;12.73;7.10;;;;;;;20.03;81.00;99702.63;5008197;28;20516;-73
2023/08/07 02:27:11;;;;;;;13.23;7.85;;;;;;;20.03;80.95;99707.94;5012566;28;20519;-74
2023/08/07 02:29:39;;;;;;;12.98;8.25;;;;;;;20.03;80.64;99703.47;5009772;28;20102;-76
2023/08/07 02:32:07;;;;;;;11.60;7.25;;;;;;;20.02;80.70;99688.53;5011353;28;20046;-80
2023/08/07 02:34:34;;;;;;;10.85;7.43;;;;;;;19.99;80.77;99686.94;5008084;28;20053;-75
2023/08/07 02:37:01;;;;;;;8.38;6.93;;;;;;;20.01;80.80;99689.50;5015676;28;20053;-76
2023/08/07 02:39:28;;;;;;;11.77;7.22;;;;;;;19.99;80.60;99692.25;5015551;28;20046;-75
2023/08/07 02:41:55;;;;;;;14.00;6.88;;;;;;;19.98;80.54;99690.56;5010851;28;20046;-76
2023/08/07 02:44:21;;;;;;;8.50;6.38;;;;;;;19.98;80.59;99679.97;5014608;28;20045;-75
2023/08/07 02:46:50;;;;;;;7.55;6.15;;;;;;;19.99;80.66;99688.75;5010729;28;20674;-75
2023/08/07 02:49:17;;;;;;;6.30;5.75;;;;;;;19.83;80.56;99667.00;5014991;28;20056;-75
2023/08/07 02:51:43;;;;;;;6.95;6.22;;;;;;;19.97;80.63;99683.56;5010856;28;20056;-76
2023/08/07 02:54:10;;;;;;;13.00;6.78;;;;;;;19.97;80.48;99678.25;5010920;28;20042;-76
2023/08/07 02:56:37;;;;;;;7.88;6.15;;;;;;;19.93;80.55;99675.97;5011876;28;20590;-75
2023/08/07 02:59:05;;;;;;;7.03;5.28;;;;;;;19.95;80.56;99682.84;5014861;28;20045;-75
2023/08/07 03:01:32;;;;;;;6.07;5.47;;;;;;;19.91;80.54;99678.72;5011739;28;20060;-76
2023/08/07 03:04:00;;;;;;;7.85;5.65;;;;;;;19.94;80.51;99682.94;5013347;28;20050;-76
2023/08/07 03:06:27;;;;;;;8.10;5.15;;;;;;;19.94;80.57;99685.59;5017582;28;20050;-76
2023/08/07 03:08:54;;;;;;;12.68;5.97;;;;;;;19.87;80.55;99674.63;5013838;28;20064;-76
2023/08/07 03:11:21;;;;;;;7.43;4.78;;;;;;;19.90;80.45;99686.81;5013210;28;20044;-76
2023/08/07 03:13:48;;;;;;;4.97;4.47;;;;;;;19.90;80.36;99695.59;5013657;28;20037;-76
2023/08/07 03:16:16;;;;;;;4.95;4.47;;;;;;;19.90;80.21;99692.94;5011301;28;20418;-75
2023/08/07 03:18:42;;;;;;;12.00;4.80;;;;;;;19.89;80.38;99691.22;5015255;28;20050;-76
2023/08/07 03:21:11;;;;;;;6.43;4.80;;;;;;;19.89;80.42;99683.28;5011463;28;20050;-76
2023/08/07 03:23:38;;;;;;;8.45;3.50;;;;;;;19.89;80.34;99671.84;5016868;28;20041;-76
2023/08/07 03:26:05;;;;;;;5.30;4.53;;;;;;;19.88;80.23;99673.66;5017348;28;20407;-75
2023/08/07 03:28:33;;;;;;;4.70;4.25;;;;;;;19.87;80.32;99674.63;5017659;28;20419;-75
2023/08/07 03:31:00;;;;;;;6.45;4.03;;;;;;;19.88;80.30;99659.56;5019248;28;20050;-76
2023/08/07 03:33:27;;;;;;;7.05;4.50;;;;;;;19.77;80.20;99628.56;5015129;28;20048;-76
2023/08/07 03:35:54;;;;;;;5.15;4.65;;;;;;;19.88;80.18;99636.56;5021623;28;20401;-77
2023/08/07 03:38:23;;;;;;;7.90;5.05;;;;;;;19.88;80.50;99618.00;5013404;28;20057;-75
2023/08/07 03:40:50;;;;;;;7.20;5.05;;;;;;;19.79;80.41;99605.44;5018575;28;20053;-75
2023/08/07 03:43:16;;;;;;;10.65;5.40;;;;;;;19.87;80.42;99626.91;5022784;28;20048;-76
2023/08/07 03:45:43;;;;;;;7.07;5.85;;;;;;;19.87;80.64;99644.63;5025622;28;20368;-76
2023/08/07 03:48:10;;;;;;;6.50;5.72;;;;;;;19.86;80.57;99627.88;5019544;28;20422;-75
2023/08/07 03:50:37;;;;;;;9.13;6.10;;;;;;;19.84;80.71;99626.31;5016934;28;20050;-76
2023/08/07 03:53:06;;;;;;;11.25;7.25;;;;;;;19.86;80.57;99632.31;5016522;28;20049;-76
2023/08/07 03:55:35;;;;;;;10.68;8.13;;;;;;;19.81;80.57;99622.09;5014776;28;20053;-75
2023/08/07 03:58:02;;;;;;;9.38;8.18;;;;;;;19.85;80.84;99618.22;5017101;28;20050;-75
2023/08/07 04:00:29;;;;;;;9.57;7.63;;;;;;;19.85;80.79;99623.53;5017267;28;20045;-75
2023/08/07 04:02:56;;;;;;;10.70;8.63;;;;;;;19.86;80.88;99622.56;5013770;28;20115;-75
2023/08/07 04:05:23;;;;;;;14.75;9.10;;;;;;;19.89;80.90;99626.78;5013971;28;20045;-76
2023/08/07 04:07:50;;;;;;;14.20;9.00;;;;;;;19.88;80.92;99630.41;5015789;28;20053;-75
2023/08/07 04:10:17;;;;;;;11.60;8.82;;;;;;;19.89;80.95;99643.53;5016047;28;20049;-76
2023/08/07 04:12:46;;;;;;;11.23;9.98;;;;;;;19.90;80.98;99644.41;5016361;28;20449;-75
2023/08/07 04:15:12;;;;;;;11.30;9.32;;;;;;;19.90;80.82;99639.94;5022127;28;20425;-76
2023/08/07 04:17:39;;;;;;;10.90;9.82;;;;;;;19.91;80.86;99624.88;5013200;28;20056;-75
2023/08/07 04:20:08;;;;;;;11.27;9.65;;;;;;;19.93;81.01;99599.09;5017345;28;20057;-76
2023/08/07 04:22:35;;;;;;;9.13;8.18;;;;;;;19.94;80.86;99591.03;5010790;28;20060;-76
2023/08/07 04:25:02;;;;;;;10.85;9.82;;;;;;;19.95;80.97;99616.59;5014879;28;20046;-75
2023/08/07 04:27:29;;;;;;;13.48;10.30;;;;;;;19.95;80.95;99595.38;5020321;28;20512;-75
2023/08/07 04:29:57;;;;;;;18.30;11.48;;;;;;;19.96;80.91;99610.31;5015257;28;20046;-75
2023/08/07 04:32:24;;;;;;;14.82;10.45;;;;;;;19.96;80.91;99622.72;5016903;28;20085;-76
2023/08/07 04:34:51;;;;;;;16.15;12.05;;;;;;;19.96;80.91;99599.72;5016503;28;20416;-75
2023/08/07 04:37:18;;;;;;;18.23;11.13;;;;;;;19.97;80.96;99582.00;5014269;28;20057;-73
2023/08/07 04:39:45;;;;;;;13.68;11.35;;;;;;;19.97;81.01;99587.28;5017276;28;20706;-74
2023/08/07 04:42:12;;;;;;;19.88;13.85;;;;;;;19.97;80.79;99625.25;5016061;28;20046;-73
2023/08/07 04:44:39;;;;;;;14.25;12.65;;;;;;;19.98;80.69;99673.81;5016312;28;20060;-73
2023/08/07 04:47:07;;;;;;;20.70;14.07;;;;;;;19.97;80.76;99688.84;5010978;28;20054;-75
2023/08/07 04:49:34;;;;;;;58.45;14.88;;;;;;;19.96;80.75;99597.06;5017980;28;20058;-76
2023/08/07 04:52:01;;;;;;;35.95;15.68;;;;;;;19.94;80.92;99535.38;5015349;28;20728;-76
2023/08/07 04:54:28;;;;;;;38.30;17.10;;;;;;;19.91;81.03;99524.16;5019612;28;20045;-74
2023/08/07 04:56:55;;;;;;;34.22;16.55;;;;;;;19.91;81.15;99532.94;5011083;28;20050;-75
2023/08/07 04:59:22;;;;;;;27.17;14.70;;;;;;;19.90;81.25;99557.78;5012490;28;20050;-74
2023/08/07 05:01:48;;;;;;;27.85;16.15;;;;;;;19.91;81.36;99561.28;5013509;28;20057;-75
2023/08/07 05:04:17;;;;;;;34.03;18.63;;;;;;;19.90;81.45;99565.72;5012189;28;20423;-75
2023/08/07 05:06:44;;;;;;;21.58;15.27;;;;;;;19.93;81.38;99594.66;5012374;28;20046;-75
2023/08/07 05:09:10;;;;;;;21.52;16.42;;;;;;;19.88;81.69;99612.69;5016335;28;20084;-74
2023/08/07 05:11:37;;;;;;;26.35;16.73;;;;;;;19.95;81.44;99632.50;5015101;28;20053;-75
2023/08/07 05:14:04;;;;;;;17.30;15.40;;;;;;;19.97;81.52;99645.59;5016237;28;20064;-75
2023/08/07 05:16:31;;;;;;;26.35;17.55;;;;;;;19.97;81.56;99648.25;5016173;28;20060;-75
2023/08/07 05:18:58;;;;;;;22.38;15.68;;;;;;;19.97;81.57;99643.81;5012240;28;20404;-74
2023/08/07 05:21:26;;;;;;;17.73;14.10;;;;;;;19.98;81.60;99632.25;5017402;28;20052;-75
2023/08/07 05:23:55;;;;;;;21.85;15.43;;;;;;;19.99;81.67;99599.47;5013685;28;20051;-74
2023/08/07 05:26:22;;;;;;;18.88;14.95;;;;;;;20.01;81.73;99599.38;5014292;28;20093;-74
2023/08/07 05:28:49;;;;;;;22.52;15.35;;;;;;;20.02;81.89;99584.31;5007811;28;20053;-75
2023/08/07 05:31:16;;;;;;;22.35;16.27;;;;;;;20.03;81.96;99594.78;5009270;28;20042;-74
2023/08/07 05:33:43;;;;;;;21.52;17.45;;;;;;;20.05;82.29;99589.38;5009686;28;20595;-75
2023/08/07 05:36:09;;;;;;;18.60;16.55;;;;;;;20.05;82.34;99589.38;5021186;28;20046;-74
2023/08/07 05:38:38;;;;;;;27.75;17.45;;;;;;;20.07;82.34;99583.00;5012100;28;20052;-74
2023/08/07 05:41:05;;;;;;;29.92;17.30;;;;;;;20.09;82.40;99582.84;5014794;28;20488;-74
2023/08/07 05:43:32;;;;;;;31.05;16.75;;;;;;;20.07;82.32;99579.50;5014920;28;20080;-73
2023/08/07 05:45:59;;;;;;;21.83;16.08;;;;;;;20.12;82.36;99594.09;5017579;28;20064;-74
2023/08/07 05:48:27;;;;;;;22.55;16.35;;;;;;;20.14;82.38;99578.88;5017048;28;20059;-76
2023/08/07 05:50:54;;;;;;;21.55;16.40;;;;;;;20.17;82.24;99577.81;5011253;28;20050;-76
2023/08/07 05:53:21;;;;;;;22.25;15.38;;;;;;;20.16;82.15;99576.97;5010137;28;20750;-78
2023/08/07 05:55:49;;;;;;;21.45;14.60;;;;;;;20.18;81.96;99563.63;5012590;28;20057;-76
2023/08/07 05:58:16;;;;;;;25.63;16.08;;;;;;;20.20;82.17;99551.91;5015842;28;20049;-74
2023/08/07 06:00:43;;;;;;;22.25;15.00;;;;;;;20.23;82.16;99558.78;5011189;28;20516;-74
2023/08/07 06:03:10;;;;;;;20.95;15.30;;;;;;;20.24;82.29;99549.88;5013931;28;20049;-74
2023/08/07 06:05:36;;;;;;;22.80;16.50;;;;;;;20.20;81.98;99529.84;5011078;28;20050;-74
2023/08/07 06:08:03;;;;;;;22.75;15.68;;;;;;;20.29;82.13;99545.06;5010902;28;20051;-75
2023/08/07 06:10:30;;;;;;;24.17;14.93;;;;;;;20.31;82.26;99543.09;5010377;28;20080;-74
2023/08/07 06:12:59;;;;;;;33.97;16.70;;;;;;;20.34;82.26;99542.88;4986317;28;20056;-75
2023/08/07 06:15:27;;;;;;;19.30;14.68;;;;;;;20.38;82.32;99552.28;5013540;28;20044;-75
2023/08/07 06:17:53;;;;;;;23.70;15.80;;;;;;;20.38;82.34;99544.31;5012800;28;20046;-75
2023/08/07 06:20:21;;;;;;;22.67;16.08;;;;;;;20.44;82.55;99538.53;5015027;28;20053;-75
2023/08/07 06:22:48;;;;;;;23.80;16.48;;;;;;;20.48;82.54;99530.31;5010185;28;20096;-75
2023/08/07 06:25:15;;;;;;;23.20;15.93;;;;;;;20.51;82.36;99538.88;5009820;28;20056;-75
2023/08/07 06:27:41;;;;;;;21.33;17.70;;;;;;;20.56;82.68;99530.59;5016622;28;20050;-75
2023/08/07 06:30:11;;;;;;;22.85;16.98;;;;;;;20.58;82.57;99515.41;5008787;28;20038;-75
2023/08/07 06:32:38;;;;;;;26.88;17.05;;;;;;;20.64;82.48;99517.56;5014871;28;20051;-75
2023/08/07 06:35:06;;;;;;;24.48;15.07;;;;;;;20.68;82.26;99521.66;5006960;28;20107;-75
2023/08/07 06:37:33;;;;;;;27.35;17.27;;;;;;;20.72;82.17;99517.78;5014742;28;20462;-75
2023/08/07 06:40:00;;;;;;;25.77;16.48;;;;;;;20.75;82.18;99525.50;5011781;28;20049;-75
2023/08/07 06:42:27;;;;;;;20.98;16.55;;;;;;;20.79;82.06;99547.31;5008858;28;20046;-75
2023/08/07 06:44:53;;;;;;;23.63;16.70;;;;;;;20.82;82.04;99545.25;5017076;28;20062;-75
2023/08/07 06:47:22;;;;;;;20.60;16.15;;;;;;;20.86;82.04;99532.56;5015896;28;20046;-75
2023/08/07 06:49:49;;;;;;;20.70;16.20;;;;;;;20.89;82.08;99516.44;5017073;28;20060;-75
2023/08/07 06:52:15;;;;;;;22.55;17.10;;;;;;;20.94;82.21;99500.09;5013577;28;20045;-75
2023/08/07 06:54:42;;;;;;;22.48;17.27;;;;;;;20.98;82.33;99496.25;5010050;28;20056;-75
2023/08/07 06:57:09;;;;;;;20.92;16.60;;;;;;;21.01;82.27;99503.97;5013572;28;20515;-76
2023/08/07 06:59:36;;;;;;;22.10;15.88;;;;;;;21.05;82.20;99506.22;5017534;28;20042;-75
2023/08/07 07:02:03;;;;;;;22.35;15.95;;;;;;;21.09;82.06;99504.19;5014416;28;20056;-76
2023/08/07 07:04:32;;;;;;;22.70;16.17;;;;;;;21.13;81.77;99510.91;5014539;28;20050;-76
2023/08/07 07:06:59;;;;;;;19.38;15.10;;;;;;;21.18;81.67;99500.75;4992109;28;20049;-76
2023/08/07 07:09:28;;;;;;;20.02;15.82;;;;;;;21.23;81.64;99509.19;5015117;28;20053;-73
2023/08/07 07:11:55;;;;;;;20.30;14.48;;;;;;;21.24;81.42;99488.78;5017528;28;20172;-73
2023/08/07 07:14:22;;;;;;;20.65;16.20;;;;;;;21.33;81.68;99499.47;5014713;28;20056;-73
2023/08/07 07:16:49;;;;;;;22.27;15.13;;;;;;;21.39;81.36;99497.31;5018964;28;20045;-73
2023/08/07 07:19:16;;;;;;;17.63;15.13;;;;;;;21.44;81.13;99503.09;5014562;28;20831;-73
2023/08/07 07:21:44;;;;;;;18.75;14.35;;;;;;;21.50;80.45;99502.56;5017204;28;20076;-75
2023/08/07 07:24:11;;;;;;;19.75;14.60;;;;;;;21.53;80.49;99502.31;5012118;28;20048;-74
2023/08/07 07:26:38;;;;;;;14.85;13.27;;;;;;;21.60;80.19;99505.28;5016560;28;20539;-73
2023/08/07 07:29:05;;;;;;;19.70;15.32;;;;;;;21.57;79.83;99490.44;5013266;28;20051;-73
2023/08/07 07:31:32;;;;;;;18.70;15.25;;;;;;;21.70;80.10;99506.19;5014952;28;20050;-74
2023/08/07 07:33:59;;;;;;;18.90;14.98;;;;;;;21.74;79.80;99503.16;5018942;28;20046;-76
2023/08/07 07:36:26;;;;;;;24.50;14.70;;;;;;;21.75;79.91;99510.13;5018023;28;20064;-75
2023/08/07 07:38:54;;;;;;;18.33;14.13;;;;;;;21.83;79.49;99517.47;5019204;28;20056;-75
2023/08/07 07:41:22;;;;;;;20.63;14.65;;;;;;;21.87;79.60;99516.22;5020845;28;20038;-76
2023/08/07 07:43:49;;;;;;;20.05;13.65;;;;;;;21.90;79.24;99517.78;5019233;28;20050;-75
2023/08/07 07:46:16;;;;;;;15.82;12.80;;;;;;;21.93;78.72;99506.88;5014170;28;20116;-76
2023/08/07 07:48:43;;;;;;;16.17;13.15;;;;;;;21.93;78.64;99494.41;5019078;28;20049;-76
2023/08/07 07:51:10;;;;;;;20.75;14.40;;;;;;;21.96;78.21;99485.34;5018494;28;20056;-75
2023/08/07 07:53:37;;;;;;;23.60;14.70;;;;;;;22.00;78.46;99481.47;5012715;28;20427;-77
2023/08/07 07:56:06;;;;;;;22.85;15.82;;;;;;;22.04;78.87;99493.50;5009489;28;20053;-75
2023/08/07 07:58:33;;;;;;;17.05;14.15;;;;;;;22.09;78.86;99501.09;5010600;28;20053;-76
2023/08/07 08:01:00;;;;;;;17.80;13.95;;;;;;;22.15;78.92;99504.06;5019021;28;20050;-75
2023/08/07 08:03:27;;;;;;;18.02;13.07;;;;;;;22.22;78.21;99501.72;5014524;28;20048;-76
2023/08/07 08:05:54;;;;;;;15.07;13.52;;;;;;;22.27;78.08;99504.00;5016014;28;20048;-76
2023/08/07 08:08:21;;;;;;;15.52;12.55;;;;;;;22.34;78.13;99491.81;5012905;28;20056;-75
2023/08/07 08:10:48;;;;;;;17.90;14.13;;;;;;;22.41;77.68;99490.31;5020442;28;20046;-75
2023/08/07 08:13:16;;;;;;;20.98;13.13;;;;;;;22.45;77.56;99494.38;5018116;28;20046;-75
2023/08/07 08:15:43;;;;;;;14.32;12.32;;;;;;;22.49;77.53;99485.16;5018934;28;20057;-75
2023/08/07 08:18:11;;;;;;;14.88;12.60;;;;;;;22.50;77.03;99462.03;5018305;28;20049;-76
2023/08/07 08:20:38;;;;;;;14.57;12.98;;;;;;;22.58;77.14;99476.34;5019056;28;20049;-76
2023/08/07 08:23:04;;;;;;;18.15;14.63;;;;;;;22.62;76.97;99483.06;5018295;28;20046;-76
2023/08/07 08:25:32;;;;;;;14.18;12.05;;;;;;;22.64;76.70;99481.13;5015623;28;20568;-76
2023/08/07 08:28:00;;;;;;;20.48;13.82;;;;;;;22.53;76.57;99459.94;5015285;28;20046;-77
2023/08/07 08:30:29;;;;;;;16.08;12.90;;;;;;;22.74;76.60;99486.47;5015709;28;20042;-76
2023/08/07 08:32:56;;;;;;;21.52;13.43;;;;;;;22.78;76.37;99487.03;5014044;28;20052;-76
2023/08/07 08:35:23;;;;;;;20.00;13.05;;;;;;;22.80;75.63;99480.59;5012442;28;20504;-76
2023/08/07 08:37:50;;;;;;;19.50;13.05;;;;;;;22.83;75.65;99463.50;5018927;28;20412;-76
2023/08/07 08:40:19;;;;;;;14.77;12.38;;;;;;;22.85;75.44;99474.84;5014832;28;20168;-76
2023/08/07 08:42:46;;;;;;;17.73;13.52;;;;;;;22.88;75.36;99485.22;5017688;28;20068;-76
2023/08/07 08:45:14;;;;;;;13.45;12.05;;;;;;;22.92;75.16;99470.66;5018679;28;20058;-76
2023/08/07 08:47:47;;;;;;;20.08;12.55;;;;;;;22.96;75.34;99479.22;5012443;28;20061;-77
2023/08/07 08:50:15;;;;;;;17.77;12.48;;;;;;;22.98;75.09;99472.78;5014426;28;20052;-78
2023/08/07 08:52:44;;;;;;;15.55;12.32;;;;;;;23.01;74.87;99472.50;5017570;28;20663;-76
2023/08/07 08:55:13;;;;;;;20.02;12.98;;;;;;;23.05;74.93;99473.94;5015878;28;20133;-76
2023/08/07 08:57:41;;;;;;;19.17;12.75;;;;;;;23.08;75.00;99459.47;5017906;28;20045;-76
2023/08/07 09:00:17;;;;;;;18.17;12.85;;;;;;;23.12;74.17;99463.53;5011771;28;20042;-76
2023/08/07 09:02:47;;;;;;;14.30;12.77;;;;;;;23.16;74.32;99458.75;5014875;28;20041;-76
2023/08/07 09:05:16;;;;;;;18.88;12.27;;;;;;;23.21;74.39;99461.84;5014375;28;20042;-77
2023/08/07 09:07:43;;;;;;;17.77;12.38;;;;;;;23.23;74.28;99479.38;5015007;28;20049;-75
2023/08/07 09:10:12;;;;;;;13.52;12.23;;;;;;;23.25;73.59;99480.09;5015531;28;20046;-75
2023/08/07 09:12:42;;;;;;;13.90;11.13;;;;;;;23.28;73.01;99471.81;5013460;28;20060;-76
2023/08/07 09:15:12;;;;;;;14.60;12.10;;;;;;;23.30;73.34;99482.31;5013119;28;20054;-76
2023/08/07 09:17:54;;;;;;;17.42;12.25;;;;;;;23.37;72.81;99498.56;5010896;28;20041;-74
2023/08/07 09:20:23;;;;;;;17.35;11.63;;;;;;;23.38;72.40;99484.28;5012619;28;20437;-74
2023/08/07 09:22:50;;;;;;;16.17;12.05;;;;;;;23.41;72.31;99479.50;5010909;28;20519;-73
2023/08/07 09:25:28;;;;;;;14.40;12.43;;;;;;;23.46;72.35;99474.59;5011274;28;20044;-75
2023/08/07 09:27:56;;;;;;;17.13;12.02;;;;;;;23.49;72.21;99476.97;5013259;28;20046;-72
2023/08/07 09:30:28;;;;;;;12.35;11.02;;;;;;;23.53;71.76;99477.50;5013977;28;20495;-73
2023/08/07 09:32:55;;;;;;;14.02;11.65;;;;;;;23.56;71.53;99483.41;5012634;28;20096;-73
2023/08/07 09:35:23;;;;;;;15.38;11.27;;;;;;;23.59;71.72;99474.28;5017271;28;20056;-73
2023/08/07 09:37:50;;;;;;;12.85;11.38;;;;;;;23.62;71.01;99470.47;5013880;28;20100;-74
2023/08/07 09:40:19;;;;;;;16.48;11.57;;;;;;;23.62;70.76;99467.81;5013550;28;20053;-73
2023/08/07 09:42:50;;;;;;;15.55;11.15;;;;;;;23.64;70.38;99469.34;5011874;28;20404;-73
2023/08/07 09:45:21;;;;;;;13.88;11.00;;;;;;;23.65;70.31;99468.38;5012686;28;20567;-73
2023/08/07 09:47:58;;;;;;;15.40;11.75;;;;;;;23.66;70.46;99456.72;5012069;28;20411;-72
2023/08/07 09:50:27;;;;;;;13.40;11.10;;;;;;;23.67;69.82;99453.06;5010204;28;20061;-73
2023/08/07 09:52:55;;;;;;;13.95;11.18;;;;;;;23.67;69.69;99465.56;5016465;28;20045;-73
2023/08/07 09:55:22;;;;;;;16.00;11.07;;;;;;;23.69;69.77;99467.09;5011931;28;20052;-74
2023/08/07 09:57:50;;;;;;;17.63;11.20;;;;;;;23.68;69.51;99454.78;5016156;28;20056;-73
2023/08/07 10:00:19;;;;;;;12.18;10.90;;;;;;;23.67;68.93;99452.22;5012380;28;20046;-73
2023/08/07 10:02:47;;;;;;;15.63;11.80;;;;;;;23.65;68.97;99449.72;5014708;28;20054;-75
2023/08/07 10:05:14;;;;;;;22.77;11.63;;;;;;;23.63;69.11;99450.84;5013871;28;20041;-73
2023/08/07 10:07:43;;;;;;;15.40;10.55;;;;;;;23.62;69.01;99444.66;5014339;28;20050;-73
2023/08/07 10:10:10;;;;;;;16.08;10.85;;;;;;;23.62;68.83;99450.00;5014630;28;20052;-73
2023/08/07 10:12:38;;;;;;;14.32;11.07;;;;;;;23.61;68.99;99442.16;5012498;28;20436;-72
2023/08/07 10:15:06;;;;;;;17.88;12.35;;;;;;;23.61;68.84;99447.47;5009393;28;20519;-73
2023/08/07 10:17:34;;;;;;;14.90;12.20;;;;;;;23.61;68.62;99464.31;5009850;28;20050;-72
2023/08/07 10:20:02;;;;;;;17.25;11.10;;;;;;;23.57;68.26;99469.09;5014688;28;20049;-72
2023/08/07 10:22:31;;;;;;;14.98;11.43;;;;;;;23.59;68.47;99468.94;5012455;28;20047;-73
2023/08/07 10:25:02;;;;;;;17.45;10.43;;;;;;;23.61;68.13;99463.47;5013418;28;20053;-72
2023/08/07 10:27:32;;;;;;;13.52;10.75;;;;;;;23.58;67.91;99468.09;5011633;28;20054;-74
2023/08/07 10:30:01;;;;;;;14.60;11.15;;;;;;;23.59;68.33;99471.59;5010937;28;20059;-75
2023/08/07 10:32:28;;;;;;;15.20;11.63;;;;;;;23.58;68.58;99470.78;5018239;28;20052;-76
2023/08/07 10:34:55;;;;;;;13.75;11.18;;;;;;;23.58;68.45;99481.44;5015002;28;20042;-75
2023/08/07 10:37:40;;;;;;;19.90;12.40;;;;;;;23.57;67.99;99485.09;4991115;28;20056;-75
2023/08/07 10:40:10;;;;;;;15.73;12.10;;;;;;;23.54;68.47;99485.38;5018127;28;20050;-79
2023/08/07 10:43:18;;;;;;;23.45;12.20;;;;;;;23.56;68.82;99486.09;5013813;28;20128;-79
2023/08/07 10:45:45;;;;;;;13.40;11.43;;;;;;;23.53;68.60;99483.69;4970731;28;20090;-78
2023/08/07 10:48:13;;;;;;;17.20;11.95;;;;;;;23.53;68.70;99489.00;4992903;28;20083;-78
2023/08/07 10:50:52;;;;;;;17.42;12.52;;;;;;;23.54;68.51;99477.38;5013501;28;20052;-79
2023/08/07 10:53:29;;;;;;;11.82;10.63;;;;;;;23.51;68.51;99469.69;5014107;28;20046;-78
2023/08/07 10:55:58;;;;;;;14.43;11.25;;;;;;;23.48;68.35;99469.97;5019226;28;20529;-79
2023/08/07 10:58:26;;;;;;;13.18;11.57;;;;;;;23.46;68.80;99474.59;5009514;28;20400;-79
2023/08/07 11:01:09;;;;;;;16.95;12.80;;;;;;;23.46;68.92;99474.59;5010970;28;20052;-78
2023/08/07 11:03:36;;;;;;;13.15;11.63;;;;;;;23.43;68.43;99469.53;5013757;28;20411;-79
2023/08/07 11:06:03;;;;;;;13.07;11.32;;;;;;;23.40;68.91;99461.84;5017002;28;20050;-78
2023/08/07 11:08:30;;;;;;;18.35;12.50;;;;;;;23.40;69.04;99463.66;5012379;28;20680;-78
2023/08/07 11:11:04;;;;;;;14.63;11.85;;;;;;;23.37;68.93;99458.59;5010392;28;20423;-76
2023/08/07 11:13:31;;;;;;;22.77;13.77;;;;;;;23.37;68.70;99470.13;5014188;28;20049;-77
2023/08/07 11:15:59;;;;;;;12.75;11.50;;;;;;;23.36;68.64;99460.41;5003535;28;20058;-76
2023/08/07 11:18:26;;;;;;;18.00;12.85;;;;;;;23.35;68.89;99459.59;5010269;28;20475;-77
2023/08/07 11:20:54;;;;;;;18.75;12.00;;;;;;;23.36;68.87;99444.44;5008218;28;20045;-77
2023/08/07 11:23:24;;;;;;;18.88;11.93;;;;;;;23.36;68.87;99439.09;5012848;28;20084;-76